TimeCST,TemperatureF,Dew PointF,Humidity,Sea Level PressureIn,VisibilityMPH,Wind Direction,Wind SpeedMPH,Gust SpeedMPH,PrecipitationIn,Events,Conditions,WindDirDegrees,DateUTC
12:15 AM,50.0,46.4,87,30.24,10.0,Calm,Calm,-,N/A,,Clear,0,2013-11-11 06:15:00
12:35 AM,50.0,46.4,87,30.25,10.0,Calm,Calm,-,N/A,,Clear,0,2013-11-11 06:35:00
12:55 AM,50.0,46.4,87,30.24,10.0,Calm,Calm,-,N/A,,Clear,0,2013-11-11 06:55:00
1:15 AM,50.0,46.4,87,30.24,10.0,North,3.5,-,N/A,,Clear,360,2013-11-11 07:15:00
1:35 AM,50.0,46.4,87,30.23,10.0,Calm,Calm,-,N/A,,Clear,0,2013-11-11 07:35:00
1:55 AM,51.8,46.4,82,30.23,10.0,Calm,Calm,-,N/A,,Clear,0,2013-11-11 07:55:00
2:15 AM,50.0,46.4,87,30.23,10.0,Calm,Calm,-,N/A,,Clear,0,2013-11-11 08:15:00
2:35 AM,50.0,46.4,87,30.23,10.0,Calm,Calm,-,N/A,,Clear,0,2013-11-11 08:35:00
2:55 AM,50.0,46.4,87,30.23,10.0,Calm,Calm,-,N/A,,Clear,0,2013-11-11 08:55:00
3:15 AM,50.0,46.4,87,30.23,10.0,North,3.5,-,N/A,,Clear,350,2013-11-11 09:15:00
3:35 AM,48.2,44.6,87,30.23,10.0,Calm,Calm,-,N/A,,Clear,0,2013-11-11 09:35:00
3:55 AM,50.0,46.4,87,30.23,10.0,Calm,Calm,-,N/A,,Clear,0,2013-11-11 09:55:00
4:15 AM,48.2,44.6,87,30.22,10.0,Calm,Calm,-,N/A,,Clear,0,2013-11-11 10:15:00
4:35 AM,50.0,46.4,87,30.23,10.0,Calm,Calm,-,N/A,,Clear,0,2013-11-11 10:35:00
4:55 AM,50.0,44.6,82,30.22,10.0,Calm,Calm,-,N/A,,Clear,0,2013-11-11 10:55:00
5:15 AM,48.2,44.6,87,30.23,10.0,Calm,Calm,-,N/A,,Clear,0,2013-11-11 11:15:00
5:35 AM,48.2,44.6,87,30.23,10.0,Calm,Calm,-,N/A,,Clear,0,2013-11-11 11:35:00
5:55 AM,48.2,44.6,87,30.23,10.0,Calm,Calm,-,N/A,,Clear,0,2013-11-11 11:55:00
6:15 AM,48.2,44.6,87,30.23,10.0,Calm,Calm,-,N/A,,Clear,0,2013-11-11 12:15:00
6:35 AM,48.2,44.6,87,30.24,10.0,Calm,Calm,-,N/A,,Clear,0,2013-11-11 12:35:00
6:55 AM,50.0,46.4,87,30.24,10.0,Calm,Calm,-,N/A,,Clear,0,2013-11-11 12:55:00
7:15 AM,51.8,48.2,88,30.25,10.0,Calm,Calm,-,N/A,,Clear,0,2013-11-11 13:15:00
7:35 AM,55.4,48.2,77,30.25,10.0,Calm,Calm,-,N/A,,Clear,0,2013-11-11 13:35:00
7:55 AM,59.0,46.4,63,30.26,10.0,ENE,3.5,-,N/A,,Clear,60,2013-11-11 13:55:00
8:15 AM,60.8,46.4,59,30.26,10.0,East,3.5,-,N/A,,Clear,80,2013-11-11 14:15:00
8:35 AM,62.6,46.4,55,30.26,10.0,NE,3.5,-,N/A,,Clear,40,2013-11-11 14:35:00
8:55 AM,64.4,46.4,52,30.27,10.0,East,4.6,-,N/A,,Clear,80,2013-11-11 14:55:00
9:15 AM,66.2,46.4,49,30.27,10.0,East,3.5,-,N/A,,Clear,80,2013-11-11 15:15:00
9:35 AM,69.8,46.4,43,30.26,10.0,East,3.5,-,N/A,,Clear,100,2013-11-11 15:35:00
9:55 AM,71.6,46.4,41,30.26,10.0,ESE,5.8,-,N/A,,Clear,110,2013-11-11 15:55:00
10:15 AM,71.6,46.4,41,30.26,10.0,ESE,3.5,-,N/A,,Clear,110,2013-11-11 16:15:00
10:35 AM,73.4,44.6,36,30.25,10.0,East,3.5,-,N/A,,Clear,80,2013-11-11 16:35:00
10:55 AM,75.2,44.6,34,30.25,10.0,Calm,Calm,-,N/A,,Clear,0,2013-11-11 16:55:00
11:15 AM,75.2,46.4,36,30.24,10.0,Calm,Calm,-,N/A,,Clear,0,2013-11-11 17:15:00
11:35 AM,75.2,44.6,34,30.23,10.0,Calm,Calm,-,N/A,,Clear,0,2013-11-11 17:35:00
11:55 AM,75.2,46.4,36,30.22,10.0,Calm,Calm,-,N/A,,Clear,0,2013-11-11 17:55:00
12:15 PM,77.0,46.4,34,30.21,10.0,Calm,Calm,-,N/A,,Clear,0,2013-11-11 18:15:00
12:35 PM,77.0,46.4,34,30.20,10.0,Calm,Calm,-,N/A,,Clear,0,2013-11-11 18:35:00
12:55 PM,77.0,46.4,34,30.19,10.0,Calm,Calm,-,N/A,,Clear,0,2013-11-11 18:55:00
1:15 PM,77.0,46.4,34,30.18,10.0,NE,3.5,-,N/A,,Clear,50,2013-11-11 19:15:00
1:35 PM,77.0,46.4,34,30.18,10.0,Calm,Calm,-,N/A,,Clear,0,2013-11-11 19:35:00
1:55 PM,77.0,46.4,34,30.17,10.0,Calm,Calm,-,N/A,,Clear,0,2013-11-11 19:55:00
2:15 PM,77.0,46.4,34,30.17,10.0,NNW,3.5,-,N/A,,Clear,330,2013-11-11 20:15:00
2:35 PM,75.2,46.4,36,30.17,10.0,Calm,Calm,-,N/A,,Clear,0,2013-11-11 20:35:00
2:55 PM,75.2,46.4,36,30.16,10.0,NNW,3.5,-,N/A,,Clear,340,2013-11-11 20:55:00
3:15 PM,75.2,46.4,36,30.16,10.0,NNW,3.5,-,N/A,,Clear,340,2013-11-11 21:15:00
3:35 PM,75.2,46.4,36,30.16,10.0,Calm,Calm,-,N/A,,Clear,0,2013-11-11 21:35:00
3:55 PM,73.4,50.0,44,30.16,10.0,Calm,Calm,-,N/A,,Clear,0,2013-11-11 21:55:00
4:15 PM,69.8,55.4,60,30.16,10.0,Calm,Calm,-,N/A,,Clear,0,2013-11-11 22:15:00
4:35 PM,68.0,55.4,64,30.16,10.0,Calm,Calm,-,N/A,,Clear,0,2013-11-11 22:35:00
4:55 PM,68.0,51.8,56,30.17,10.0,Calm,Calm,-,N/A,,Clear,0,2013-11-11 22:55:00
5:15 PM,66.2,53.6,64,30.17,10.0,Calm,Calm,-,N/A,,Clear,0,2013-11-11 23:15:00
5:35 PM,62.6,53.6,72,30.17,10.0,Calm,Calm,-,N/A,,Clear,0,2013-11-11 23:35:00
5:55 PM,60.8,53.6,77,30.18,10.0,Calm,Calm,-,N/A,,Clear,0,2013-11-11 23:55:00
6:15 PM,60.8,53.6,77,30.18,10.0,Calm,Calm,-,N/A,,Clear,0,2013-11-12 00:15:00
6:35 PM,59.0,55.4,88,30.19,10.0,Calm,Calm,-,N/A,,Clear,0,2013-11-12 00:35:00
6:55 PM,59.0,53.6,82,30.19,10.0,Calm,Calm,-,N/A,,Clear,0,2013-11-12 00:55:00
7:15 PM,59.0,53.6,82,30.20,10.0,Calm,Calm,-,N/A,,Clear,0,2013-11-12 01:15:00
7:35 PM,57.2,51.8,82,30.20,10.0,Calm,Calm,-,N/A,,Clear,0,2013-11-12 01:35:00
7:55 PM,55.4,51.8,88,30.21,10.0,Calm,Calm,-,N/A,,Clear,0,2013-11-12 01:55:00
8:15 PM,55.4,51.8,88,30.21,10.0,Calm,Calm,-,N/A,,Clear,0,2013-11-12 02:15:00
8:35 PM,55.4,51.8,88,30.21,10.0,Calm,Calm,-,N/A,,Clear,0,2013-11-12 02:35:00
8:55 PM,55.4,51.8,88,30.21,10.0,Calm,Calm,-,N/A,,Clear,0,2013-11-12 02:55:00
9:15 PM,53.6,51.8,94,30.22,10.0,Calm,Calm,-,N/A,,Clear,0,2013-11-12 03:15:00
9:35 PM,53.6,50.0,88,30.22,10.0,Calm,Calm,-,N/A,,Clear,0,2013-11-12 03:35:00
9:55 PM,53.6,50.0,88,30.22,10.0,Calm,Calm,-,N/A,,Clear,0,2013-11-12 03:55:00
10:15 PM,53.6,50.0,88,30.21,10.0,Calm,Calm,-,N/A,,Clear,0,2013-11-12 04:15:00
10:35 PM,53.6,50.0,88,30.21,10.0,Calm,Calm,-,N/A,,Clear,0,2013-11-12 04:35:00
10:55 PM,51.8,48.2,88,30.21,10.0,Calm,Calm,-,N/A,,Clear,0,2013-11-12 04:55:00
11:15 PM,51.8,48.2,88,30.21,10.0,Calm,Calm,-,N/A,,Clear,0,2013-11-12 05:15:00
11:35 PM,51.8,48.2,88,30.21,10.0,Calm,Calm,-,N/A,,Clear,0,2013-11-12 05:35:00
11:55 PM,51.8,48.2,88,30.21,10.0,Calm,Calm,-,N/A,,Clear,0,2013-11-12 05:55:00